Tiempo atmosférico en la estación meteorológica de Villanueva De Córdoba, Córdoba (740 m.)



Fecha
DESCASC
Temp. máxima en grados centígrados (hora)
DESCASC
Temp. mínima en grados centígrados (hora)
DESCASC
Temp. media en grados centígrados
DESCASC
Racha de viento máxima en m/sg (hora)
DESCASC
Velocidad máxima media en intervalos de 10 minutos(hora)
DESCASC
Precipitaciones diarias en mm
DESCASC
Precipitaciones de 00:00 a 06:00 en mm
DESCASC
Precipitaciones de 06:00 a 12:00 en mm
DESCASC
Precipitaciones de 12:00 a 18:00 en mm
DESCASC
Precipitaciones de 18:00 a 24:00 en mm
DESCASC
17-03-2019 20 (15:50) 8.8 (06:00) 14.4 13.33 (16:10) 6.39 (17:20) 0 0 0 0 0
16-03-2019 23.8 (16:40) 11.8 (06:20) 17.8 8.06 (13:40) 4.44 (14:50) 0 0 0 0 0
15-03-2019 23.6 (16:30) 7 (07:10) 15.3 6.11 (12:10) 2.78 (03:20) 0 0 0 0 0
14-03-2019 18.2 (15:50) 4.2 (00:00) 11.2 6.39 (16:20) 3.06 (00:10) 0 0 0 0 0
13-03-2019 16.8 (16:50) 5.5 (00:00) 11.1 8.33 (17:30) 4.44 (05:50) 0 0 0 0 0
12-03-2019 21.8 (15:20) 9.7 (00:00) 15.7 9.17 (15:10) 5.56 (16:10) 0 0 0 0 0
11-03-2019 22.7 (16:20) 11.3 (00:00) 17 5.83 (12:00) 3.06 (17:00) 0 0 0 0 0
10-03-2019 20.4 (16:40) 9.1 (00:00) 14.8 7.5 (17:10) 3.61 (15:50) 0 0 0 0 0
09-03-2019 18.5 (14:40) 6.7 (00:00) 12.6 6.11 (11:10) 3.33 (11:10) 0 0 0 0 0
08-03-2019 15.1 (17:10) 5.4 (00:00) 10.3 6.11 (14:20) 2.78 (14:30) 0.4 0.4 0 0 0
07-03-2019 12.4 (15:30) 3.8 (00:00) 8.1 8.61 (16:30) 5 (16:40) 0 0 0 0 0
06-03-2019 10.9 (03:20) 5.4 (00:00) 8.1 19.72 (12:50) 10.28 (12:50) 11.8 0.2 5 6.6 0
05-03-2019 16.2 (13:40) 8.6 (00:00) 12.4 8.61 (16:20) 5 (14:40) 0.2 0 0 0 0.2
04-03-2019 16.3 (17:30) 5.4 (00:00) 10.8 10.28 (17:30) 5.56 (17:20) 0 0 0 0 0
03-03-2019 21.5 (14:40) 9.8 (00:00) 15.7 8.06 (14:50) 4.17 (15:50) 0 0 0 0 0
02-03-2019 18.9 (15:40) 6.5 (00:00) 12.7 6.39 (15:40) 3.33 (16:50) 0 0 0 0 0
01-03-2019 19.1 (16:00) 7.3 (00:00) 13.2 6.39 (17:40) 3.61 (17:40) 0 0 0 0 0
28-02-2019 19.6 (15:20) 6.8 (00:00) 13.2 5.56 (14:50) 3.33 (08:20) 0 0 0 0 0
27-02-2019 20 (16:20) 6 (00:00) 13 6.67 (14:00) 2.78 (12:40) 0 0 0 0 0
26-02-2019 20.1 (15:20) 8.5 (00:00) 14.3 11.39 (14:10) 4.17 (13:50) 0 0 0 0 0
25-02-2019 20.1 (16:30) 7.6 (00:00) 13.9 5 (13:10) 2.5 (14:50) 0 0 0 0 0
24-02-2019 21.3 (15:50) 7.2 (00:00) 14.2 5.83 (12:10) 2.5 (14:20) 0 0 0 0 0
23-02-2019 17.4 (16:20) 7.9 (00:00) 12.6 5.83 (12:30) 2.78 (11:00) 0 0 0 0 0
22-02-2019 19.9 (16:50) 7.4 (00:00) 13.6 7.5 (13:50) 3.06 (11:40) 0 0 0 0 0
21-02-2019 18 (15:20) 5.3 (00:00) 11.7 6.67 (13:30) 3.33 (11:00) 0 0 0 0 0
20-02-2019 17.1 (16:00) 5 (00:00) 11.1 6.39 (16:20) 2.78 (09:10) 0.2 0 0.2 0 0

Gráficas

Temp. máximas Temp. mínimas Temp. medias Precipitaciones Rachas de viento máximas Velocidades máximas media en intervalos de 10 minutos

Datos horarios

Fecha y hora oficial Temperatura (ºC) Velocidad del viento (km/h) Dirección del viento Racha (km/h) Dirección de racha Precipitación (mm) Presión (hPa) Tendencia (hPa) Humedad (%)
2019-03-21 23:00:00 6.8 7 Nordeste 9 Nordeste 0 937.9 1.2 40
2019-03-21 22:00:00 8 6 Este 15 Este 0 937.6 1.2 35
2019-03-21 21:00:00 8.1 7 Este 13 Nordeste 0 937.3 1.2 35
2019-03-21 20:00:00 9.9 5 Nordeste 12 Nordeste 0 936.7 0.5 31
2019-03-21 19:00:00 13.1 10 Nordeste 28 Nordeste 0 936.4 -0.1 25
2019-03-21 18:00:00 14.6 8 Nordeste 27 Nordeste 0 936.1 -0.8 23
2019-03-21 17:00:00 15 10 Nordeste 27 Este 0 936.2 -1.5 22
2019-03-21 16:00:00 15 -- -- -- -- -- 936.5 -1.8 21
2019-03-21 15:00:00 15 12 Este 35 Nordeste 0 936.9 -1.9 24
2019-03-21 14:00:00 14.3 14 Este 33 Este 0 937.7 -1.4 23
2019-03-21 13:00:00 13.4 15 Este 40 Este 0 938.3 -0.8 25
2019-03-21 12:00:00 12.7 18 Este 40 Este 0 938.8 -0.2 27
2019-03-21 11:00:00 12 14 Este 34 Este 0 939.1 0.6 29
2019-03-21 10:00:00 10.8 10 Este 24 Este 0 939.1 1.2 30
2019-03-21 09:00:00 8.2 13 Este 30 Este 0 939 1.4 40
2019-03-21 08:00:00 5.8 8 Este 19 Este 0 938.5 1.1 57
2019-03-21 07:00:00 3.9 6 Este 13 Este 0 937.9 0.4 70
2019-03-21 06:00:00 4.7 6 Este 20 Este 0 937.6 -0.1 68
2019-03-21 05:00:00 3.6 9 Este 17 Este 0 937.4 -0.6 79
2019-03-21 04:00:00 4.1 4 Sudeste 12 Sur 0 937.5 -0.6 80
2019-03-21 03:00:00 4.8 8 Sur 16 Sudeste 0 937.7 -0.2 76
2019-03-21 02:00:00 5.6 11 Sudeste 17 Sudeste 0 938 0 70
2019-03-21 01:00:00 6.9 8 Sudeste 24 Este 0 938.1 0.2 60
2019-03-21 00:00:00 7.7 12 Este 21 Este 0 937.9 0.3 46
2019-03-20 23:00:00 6.8 9 Nordeste 22 Nordeste 0 938 0.9 49
2019-03-20 22:00:00 7.7 7 Nordeste 13 Nordeste 0 937.9 1.1 49
2019-03-20 21:00:00 9 6 Nordeste 12 Nordeste 0 937.6 1.2 45
2019-03-20 20:00:00 11 5 Norte 9 Norte 0 937.1 0.7 37
2019-03-20 19:00:00 13.2 0 Calma 18 Este 0 936.8 0.3 33
2019-03-20 18:00:00 14.7 8 Nordeste 23 Nordeste 0 936.4 -0.6 30
2019-03-20 17:00:00 14.3 5 Este 20 Este 0 936.4 -1.2 32
2019-03-20 16:00:00 13.2 8 Nordeste 21 Nordeste 0 936.5 -1.5 34
2019-03-20 15:00:00 13.1 7 Este 26 Sudeste 0 937 -1.1 37
2019-03-20 14:00:00 15 13 Sudeste 26 Sudeste 0 937.6 -0.7 33
2019-03-20 13:00:00 13.9 11 Sudeste 27 Este 0 938 -0.1 36
2019-03-20 12:00:00 13.3 12 Este 27 Este 0 938.1 0.4 37
2019-03-20 11:00:00 12.1 10 Este 22 Este 0 938.3 1.2 44
2019-03-20 10:00:00 10.1 9 Este 19 Nordeste 0 938.1 1.4 46
2019-03-20 09:00:00 6.5 10 Nordeste 26 Norte 0 937.7 0.8 55
2019-03-20 08:00:00 3.8 10 Nordeste 28 Norte 0 937.1 0 62
2019-03-20 07:00:00 2.8 11 Este 26 Norte 0 936.7 -0.6 64
2019-03-20 06:00:00 3.1 10 Nordeste 19 Nordeste 0 936.9 -0.9 63
2019-03-20 05:00:00 4 6 Nordeste 21 Nordeste 0 937.1 -0.7 59
2019-03-20 04:00:00 5.3 12 Nordeste 31 Nordeste 0 937.3 -0.6 54
2019-03-20 03:00:00 7 17 Nordeste 35 Nordeste 0 937.8 0 47
2019-03-20 02:00:00 6.7 12 Nordeste 26 Nordeste 0 937.8 0.3 48
2019-03-20 01:00:00 6.5 10 Nordeste 17 Nordeste 0 937.9 0.7 48
2019-03-20 00:00:00 6.8 6 Nordeste 10 Nordeste 0 937.8 1.1 46
2019-03-19 23:00:00 6.3 5 Nordeste 11 Este 0 937.5 1.2 48
2019-03-19 22:00:00 7.5 7 Nordeste 14 Nordeste 0 937.2 1.3 45
2019-03-19 21:00:00 9.3 8 Nordeste 18 Norte 0 936.7 1.3 38
2019-03-19 20:00:00 11 9 Nordeste 24 Norte 0 936.3 1 34
2019-03-19 19:00:00 13.2 12 Nordeste 34 Nordeste 0 935.9 0.5 30
2019-03-19 18:00:00 14.1 14 Nordeste 35 Nordeste 0 935.4 -0.2 30
2019-03-19 17:00:00 14.6 16 Nordeste 39 Nordeste 0 935.3 -0.7 29
2019-03-19 16:00:00 14.5 16 Nordeste 40 Nordeste 0 935.4 -1.1 31
2019-03-19 15:00:00 14.4 18 Nordeste 42 Nordeste 0 935.6 -1.2 31
2019-03-19 14:00:00 13.7 18 Nordeste 43 Nordeste 0 936 -0.9 35
2019-03-19 13:00:00 13.3 14 Nordeste 34 Nordeste 0 936.5 -0.1 35
2019-03-19 12:00:00 12.9 14 Nordeste 33 Este 0 936.8 0.4 33
2019-03-19 11:00:00 12 13 Nordeste 30 Nordeste 0 936.9 0.9 33
2019-03-19 10:00:00 10.8 13 Nordeste 34 Este 0 936.6 0.9 35
2019-03-19 09:00:00 9 13 Nordeste 29 Nordeste 0 936.4 0.8 42
2019-03-19 08:00:00 5.1 9 Nordeste 15 Nordeste 0 936 0.6 47
2019-03-19 07:00:00 4.2 8 Nordeste 13 Nordeste 0 935.7 0 47
2019-03-19 06:00:00 4.8 6 Nordeste 18 Este 0 935.6 -0.4 45
2019-03-19 05:00:00 4.9 7 Nordeste 18 Nordeste 0 935.4 -0.8 45
2019-03-19 04:00:00 6.2 7 Norte 14 Nordeste 0 935.7 -0.5 42
2019-03-19 03:00:00 6 4 Norte 8 Este 0 936 -0.2 40
2019-03-19 02:00:00 7.3 5 Este 12 Nordeste 0 936.2 -0.2 36
2019-03-19 01:00:00 6.6 8 Nordeste 19 Norte 0 936.2 0 40
2019-03-19 00:00:00 6.8 9 Nordeste 16 Nordeste 0 936.2 0.6 38
2019-03-18 23:00:00 7.8 6 Nordeste 15 Norte 0 936.4 1 34
2019-03-18 22:00:00 8.9 8 Norte 15 Norte 0 936.2 1.2 32
2019-03-18 21:00:00 9.1 7 Nordeste 13 Norte 0 935.6 1.2 40
2019-03-18 20:00:00 11.3 7 Nordeste 14 Nordeste 0 935.4 1.2 37
2019-03-18 19:00:00 14.5 9 Norte 26 Nordeste 0 935 0.6 32
2019-03-18 18:00:00 15.9 10 Nordeste 27 Nordeste 0 934.4 -0.3 32
2019-03-18 17:00:00 16.7 12 Norte 28 Nordeste 0 934.2 -1 33
2019-03-18 16:00:00 17.1 9 Nordeste 24 Nordeste 0 934.4 -1.1 31
2019-03-18 15:00:00 16.7 13 Nordeste 30 Nordeste 0 934.7 -0.8 35
2019-03-18 14:00:00 17 9 Nordeste 22 Nordeste 0 935.2 -0.1 36
2019-03-18 13:00:00 16.3 9 Nordeste 22 Nordeste 0 935.5 0.8 40
2019-03-18 12:00:00 15.7 12 Este 29 Este 0 935.5 1.1 39
2019-03-18 11:00:00 14.5 15 Nordeste 35 Nordeste 0 935.3 1.7 43
2019-03-18 10:00:00 12.6 13 Nordeste 28 Este 0 934.7 1.7 52
2019-03-18 09:00:00 9.4 10 Nordeste 21 Nordeste 0 934.4 2.1 66
2019-03-18 08:00:00 5.7 6 Norte 13 Norte 0 933.6 1.5 77
2019-03-18 07:00:00 6.1 7 Norte 16 Norte 0 933 0.6 79
2019-03-18 06:00:00 6.3 7 Noroeste 18 Norte 0 932.3 -0.2 82
2019-03-18 05:00:00 6.7 9 Noroeste 19 Noroeste 0 932.1 -0.6 80
2019-03-18 04:00:00 7.1 10 Noroeste 17 Noroeste 0 932.4 -0.3 77
2019-03-18 03:00:00 7.6 10 Noroeste 18 Noroeste 0 932.5 -0.4 75
2019-03-18 02:00:00 8.2 10 Noroeste 18 Noroeste 0 932.7 -0.3 73
2019-03-18 01:00:00 8.6 9 Noroeste 20 Noroeste 0 932.7 -0.1 71
2019-03-18 00:00:00 9.2 10 Noroeste 20 Noroeste 0 932.9 0.2 69
2019-03-17 23:00:00 9.7 9 Noroeste 19 Norte 0 933 0.3 64
2019-03-17 22:00:00 10.1 7 Norte 16 Noroeste 0 932.8 0.5 62
2019-03-17 21:00:00 10.4 8 Noroeste 21 Noroeste 0 932.7 0.6 58
2019-03-17 20:00:00 11.5 9 Noroeste 32 Noroeste 0 932.7 0.8 55
2019-03-17 19:00:00 14.4 14 Noroeste 32 Noroeste 0 932.3 0 47
2019-03-17 18:00:00 16.2 17 Noroeste 40 Oeste 0 932.1 -0.7 39
2019-03-17 17:00:00 19 21 Oeste 48 Oeste 0 931.9 -1.7 25
2019-03-17 16:00:00 19.5 18 Oeste 40 Noroeste 0 932.3 -1.9 21
2019-03-17 15:00:00 19.4 18 Noroeste 36 Noroeste 0 932.8 -1.8 24
2019-03-17 14:00:00 18.8 20 Oeste 34 Noroeste 0 933.6 -1 24
2019-03-17 13:00:00 18.2 14 Noroeste 32 Noroeste 0 934.2 -0.3 26
2019-03-17 12:00:00 16.8 10 Noroeste 20 Noroeste 0 934.6 0.6 27
2019-03-17 11:00:00 14.7 10 Noroeste 23 Noroeste 0 934.6 1.3 30
2019-03-17 10:00:00 13.4 15 Oeste 27 Oeste 0 934.5 1.7 40
2019-03-17 09:00:00 13.4 8 Oeste 13 Oeste 0 934 1.4 44
2019-03-17 08:00:00 9.6 7 Oeste 11 Noroeste 0 933.3 0.7 54
2019-03-17 07:00:00 9.3 7 Oeste 12 Noroeste 0 932.8 0 60
2019-03-17 06:00:00 8.8 10 Noroeste 13 Noroeste 0 932.6 -0.5 63
2019-03-17 05:00:00 9.6 7 Noroeste 13 Oeste 0 932.6 -0.7 58
2019-03-17 04:00:00 10.7 8 Oeste 17 Oeste 0 932.8 -0.8 53
2019-03-17 03:00:00 11.4 9 Oeste 18 Oeste 0 933.1 -0.5 48
2019-03-17 02:00:00 11.8 12 Oeste 23 Oeste 0 933.3 -0.5 45
2019-03-17 01:00:00 12.4 11 Oeste 18 Oeste 0 933.6 -0.3 40
2019-03-17 00:00:00 13.1 12 Sudoeste 20 Oeste 0 933.6 -0.2 38
2019-03-16 23:00:00 13.2 10 Sudoeste 17 Sudoeste 0 933.8 0.3 37
2019-03-16 22:00:00 12.9 10 Sudoeste 15 Sudoeste 0 933.9 0.6 36
2019-03-16 21:00:00 13.9 10 Sudoeste 17 Sudoeste 0 933.8 0.6 31
2019-03-16 20:00:00 16 10 Sudoeste 16 Sudoeste 0 933.5 0 26
2019-03-16 19:00:00 20.3 9 Sudoeste 24 Sudoeste 0 933.3 -0.5 19
2019-03-16 18:00:00 22.7 11 Sudoeste 20 Sudoeste 0 933.2 -1.2 15
2019-03-16 17:00:00 23.5 11 Sudoeste 29 Sudoeste 0 933.5 -1.6 13
2019-03-16 16:00:00 23.6 12 Sudoeste 28 Sur 0 933.8 -2 16
2019-03-16 15:00:00 23 15 Sur 29 Sudoeste 0 934.4 -1.7 17
2019-03-16 14:00:00 23.1 14 Sudoeste 29 Sur 0 935.1 -1.4 20
2019-03-16 13:00:00 23.4 12 Sudoeste 24 Sudoeste 0 935.8 -0.8 19
2019-03-16 12:00:00 23.2 6 Sur 19 Sur 0 936.1 -0.3 21
2019-03-16 11:00:00 21.3 8 Sur 16 Sudeste 0 936.5 0.2 22
2019-03-16 10:00:00 19.5 5 Sudeste 12 Sudeste 0 936.6 0.3 22
2019-03-16 09:00:00 17.8 5 Sudeste 10 Sudeste 0 936.4 0.1 23
2019-03-16 08:00:00 14.2 7 Sudeste 12 Sudeste 0 936.3 -0.2 26
2019-03-16 07:00:00 12.7 6 Sudeste 12 Sur 0 936.3 -0.3 28
2019-03-16 06:00:00 12.6 7 Sudeste 12 Sudeste 0 936.3 -1 29
2019-03-16 05:00:00 12.9 6 Sur 9 Sudeste 0 936.5 -1.1 27
2019-03-16 04:00:00 12.8 8 Sur 11 Sur 0 936.6 -1.4 30
2019-03-16 03:00:00 12.9 8 Sur 11 Sudeste 0 937.3 -1.1 32
2019-03-16 02:00:00 13.3 7 Sur 10 Sur 0 937.6 -0.8 30
2019-03-16 01:00:00 14.3 6 Sur 9 Sur 0 938 -0.2 28
2019-03-16 00:00:00 14.3 7 Sur 9 Sur 0 938.4 0.7 29
2019-03-15 23:00:00 14.5 6 Sur 9 Sur 0 938.4 0.8 29
2019-03-15 22:00:00 14.9 5 Sudoeste 8 Sudoeste 0 938.2 0.9 27
2019-03-15 21:00:00 15.4 5 Sudoeste 8 Sudoeste 0 937.7 0.5 27
2019-03-15 20:00:00 16.9 8 Sudoeste 15 Sur 0 937.6 0.3 27
2019-03-15 19:00:00 21.1 4 Noroeste 15 Noroeste 0 937.3 -0.3 23
2019-03-15 18:00:00 22.1 9 Noroeste 17 Noroeste 0 937.2 -0.9 18
2019-03-15 17:00:00 23.4 3 Noroeste 15 Noroeste 0 937.3 -1.4 17
2019-03-15 16:00:00 23.3 3 Nordeste 16 Nordeste 0 937.6 -1.8 16
2019-03-15 15:00:00 23 4 Norte 14 Este 0 938.1 -1.7 12
2019-03-15 14:00:00 21.6 8 Nordeste 18 Nordeste 0 938.7 -1.3 15
2019-03-15 13:00:00 21 4 Nordeste 22 Este 0 939.4 -0.5 17
2019-03-15 12:00:00 20.2 8 Sudeste 19 Este 0 939.8 0.2 19
2019-03-15 11:00:00 18.6 6 Sur 11 Sudoeste 0 940 0.5 27
2019-03-15 10:00:00 16.9 3 Este 14 Nordeste 0 939.9 0.7 28
2019-03-15 09:00:00 13 9 Este 18 Este 0 939.6 0.4 35
2019-03-15 08:00:00 8.1 8 Este 15 Este 0 939.5 0.2 46
2019-03-15 07:00:00 7.1 8 Nordeste 12 Nordeste 0 939.2 -0.3 49
2019-03-15 06:00:00 7.5 8 Nordeste 12 Nordeste 0 939.2 -0.9 48
2019-03-15 05:00:00 7.6 9 Nordeste 15 Nordeste 0 939.3 -1.2 48
2019-03-15 04:00:00 8.4 10 Nordeste 18 Norte 0 939.5 -1.3 45
2019-03-15 03:00:00 8.6 6 Norte 18 Norte 0 940.1 -0.9 41
2019-03-15 02:00:00 9.6 9 Norte 17 Nordeste 0 940.5 -0.5 38
2019-03-15 01:00:00 8.9 7 Nordeste 13 Nordeste 0 940.8 0.1 38
2019-03-15 00:00:00 9.4 7 Norte 10 Norte 0 941 0.5 37
2019-03-14 23:00:00 9.9 6 Norte 10 Norte 0 941 0.6 36
2019-03-14 22:00:00 10 7 Nordeste 13 Nordeste 0 940.7 0.6 38
2019-03-14 21:00:00 10.8 7 Nordeste 12 Nordeste 0 940.5 0.5 38
2019-03-14 20:00:00 12.7 6 Norte 12 Norte 0 940.4 0.3 34
2019-03-14 19:00:00 16.2 5 Norte 15 Norte 0 940.1 -0.1 29
2019-03-14 18:00:00 17.6 5 Norte 18 Norte 0 940 -0.4 24
2019-03-14 17:00:00 17.9 8 Noroeste 23 Norte 0 940.1 -0.8 26
2019-03-14 16:00:00 17.7 6 Noroeste 23 Nordeste 0 940.2 -1.5 21
2019-03-14 15:00:00 17.6 6 Noroeste 16 Norte 0 940.4 -2 23
2019-03-14 14:00:00 16.9 6 Este 16 Nordeste 0 940.9 -1.5 21
2019-03-14 13:00:00 16.3 4 Sudeste 14 Nordeste 0 941.7 -0.8 28
2019-03-14 12:00:00 14.8 8 Este 16 Este 0 942.4 0.4 29
2019-03-14 11:00:00 13.1 8 Este 16 Este 0 942.4 1.2 33
2019-03-14 10:00:00 11.3 4 Nordeste 12 Nordeste 0 942.5 1.5 39
2019-03-14 09:00:00 8.6 7 Nordeste 15 Este 0 942 1 46
2019-03-14 08:00:00 4.6 9 Este 20 Este 0 941.2 0.4 54
2019-03-14 07:00:00 4.8 10 Este 18 Este 0 941 -0.1 53
2019-03-14 06:00:00 4.9 8 Este 17 Este 0 941 -0.4 53
2019-03-14 05:00:00 4.9 8 Este 18 Este 0 940.8 -0.7 54
2019-03-14 04:00:00 5.4 10 Este 18 Este 0 941.1 -0.4 54
2019-03-14 03:00:00 5.3 8 Este 17 Este 0 941.4 0.2 55
2019-03-14 02:00:00 6.1 9 Este 14 Este 0 941.5 0.5 53
2019-03-14 01:00:00 6.6 9 Nordeste 20 Nordeste 0 941.5 0.8 51
2019-03-14 00:00:00 7.2 11 Nordeste 19 Nordeste 0 941.2 0.7 46
2019-03-13 23:00:00 7.6 9 Nordeste 16 Este 0 941 1.1 43
2019-03-13 22:00:00 8.8 10 Este 18 Este 0 940.7 1.4 38
2019-03-13 21:00:00 9.7 9 Nordeste 19 Nordeste 0 940.5 1.7 40
2019-03-13 20:00:00 11 7 Norte 17 Norte 0 939.9 1.2 41
2019-03-13 19:00:00 14 8 Nordeste 25 Nordeste 0 939.3 1 34
2019-03-13 18:00:00 15.6 10 Nordeste 30 Nordeste 0 938.8 0.3 43
2019-03-13 17:00:00 15.6 11 Norte 26 Norte 0 938.7 -0.4 44
2019-03-13 16:00:00 16.4 10 Norte 29 Nordeste 0 938.3 -1.2 43
2019-03-13 15:00:00 15.7 12 Nordeste 30 Norte 0 938.5 -0.8 44
2019-03-13 14:00:00 14.3 8 Norte 24 Noroeste 0 939.1 -0.2 59
2019-03-13 13:00:00 13.1 13 Noroeste 30 Noroeste 0 939.5 0.6 63
2019-03-13 12:00:00 11.9 12 Noroeste 22 Noroeste 0 939.3 1 66
2019-03-13 11:00:00 10.5 11 Noroeste 22 Norte 0 939.3 1.4 75
2019-03-13 10:00:00 8.5 12 Noroeste 23 Noroeste 0 938.9 1.3 85
2019-03-13 09:00:00 6.8 9 Noroeste 21 Noroeste 0 938.3 1.1 93
2019-03-13 08:00:00 5.5 13 Noroeste 26 Noroeste 0 937.9 1 94
2019-03-13 07:00:00 5.8 12 Noroeste 26 Noroeste 0 937.6 0.1 93
2019-03-13 06:00:00 6 14 Noroeste 30 Noroeste 0 937.2 -0.9 93
2019-03-13 05:00:00 6.7 11 Noroeste 30 Noroeste 0 936.9 -1.6 90
2019-03-13 04:00:00 7.9 14 Noroeste 26 Noroeste 0 937.5 -1.3 85
2019-03-13 03:00:00 8.2 12 Noroeste 23 Noroeste 0 938.1 -1 83
2019-03-13 02:00:00 9.3 13 Noroeste 28 Noroeste 0 938.5 -0.6 75
2019-03-13 01:00:00 10.5 12 Noroeste 23 Noroeste 0 938.8 -0.4 62
2019-03-13 00:00:00 11.6 13 Oeste 20 Oeste 0 939.1 0 55
2019-03-12 23:00:00 12.3 9 Noroeste 22 Oeste 0 939.1 0.4 64
2019-03-12 22:00:00 13.5 9 Noroeste 19 Noroeste 0 939.2 0.8 58
2019-03-12 21:00:00 14.6 8 Noroeste 17 Noroeste 0 939.1 0.9 56
2019-03-12 20:00:00 16.2 9 Noroeste 18 Oeste 0 938.7 0.2 49
2019-03-12 19:00:00 19 12 Oeste 27 Oeste 0 938.4 -0.4 38
2019-03-12 18:00:00 20.7 11 Oeste 30 Oeste 0 938.2 -1.3 40
2019-03-12 17:00:00 21.4 15 Oeste 33 Oeste 0 938.5 -1.8 36
2019-03-12 16:00:00 21.5 16 Oeste 33 Sudoeste 0 938.8 -2.2 34
2019-03-12 15:00:00 21.4 13 Sudoeste 30 Sudoeste 0 939.5 -1.9 43
2019-03-12 14:00:00 20.6 15 Sudoeste 30 Sudoeste 0 940.3 -1.2 43
2019-03-12 13:00:00 20.2 14 Sudoeste 25 Sur 0 941 -0.4 48
2019-03-12 12:00:00 19.2 13 Sur 29 Sudoeste 0 941.4 0.2 48
2019-03-12 11:00:00 17.7 13 Sur 26 Sur 0 941.5 0.4 50
2019-03-12 10:00:00 15.3 12 Sur 26 Sudoeste 0 941.4 0.1 58
2019-03-12 09:00:00 13.4 11 Sur 18 Sur 0 941.2 0 63
2019-03-12 08:00:00 10 11 Sur 19 Sur 0 941.1 0 72
2019-03-12 07:00:00 10 10 Sur 18 Sudeste 0 941.3 -0.1 68
2019-03-12 06:00:00 11.1 10 Sudeste 16 Sudeste 0 941.2 -0.5 63
2019-03-12 05:00:00 12 7 Sudeste 12 Sudeste 0 941.1 -0.8 60
2019-03-12 04:00:00 12.2 5 Sur 8 Sur 0 941.4 -0.6 60
2019-03-12 03:00:00 12.4 3 Oeste 7 Oeste 0 941.7 -0.6 59
2019-03-12 02:00:00 12.7 5 Noroeste 8 Oeste 0 941.9 -0.3 59
2019-03-12 01:00:00 13 3 Norte 9 Noroeste 0 942 0.1 58
2019-03-12 00:00:00 14.4 5 Este 21 Este 0 942.3 0.8 51
2019-03-11 23:00:00 14.6 6 Este 9 Este 0 942.2 1.2 53
2019-03-11 22:00:00 14.3 6 Nordeste 10 Nordeste 0 941.9 1.1 55
2019-03-11 21:00:00 14.3 7 Nordeste 14 Nordeste 0 941.5 1.1 57
2019-03-11 20:00:00 16.4 7 Norte 13 Norte 0 941 0.7 50
2019-03-11 19:00:00 19.5 8 Noroeste 19 Noroeste 0 940.8 0.4 43
2019-03-11 18:00:00 21.1 6 Noroeste 19 Noroeste 0 940.4 -0.2 40
2019-03-11 17:00:00 22 11 Oeste 19 Noroeste 0 940.3 -0.8 36
2019-03-11 16:00:00 22.5 4 Sudoeste 15 Noroeste 0 940.4 -1.2 32
2019-03-11 15:00:00 21.8 5 Oeste 13 Norte 0 940.6 -1.3 37
2019-03-11 14:00:00 20.9 3 Sudoeste 14 Norte 0 941.1 -0.6 44
2019-03-11 13:00:00 18.9 5 Norte 19 Oeste 0 941.6 -0.1 59
2019-03-11 12:00:00 18.1 8 Noroeste 21 Oeste 0 941.9 0.5 58
2019-03-11 11:00:00 17.6 4 Noroeste 11 Noroeste 0 941.7 0.8 58
2019-03-11 10:00:00 15.3 5 Norte 16 Noroeste 0 941.7 0.9 67
2019-03-11 09:00:00 13.1 8 Noroeste 14 Norte 0 941.4 0.8 78
2019-03-11 08:00:00 11.5 8 Norte 17 Norte 0 940.9 0.6 83
2019-03-11 07:00:00 11.5 9 Noroeste 15 Noroeste 0 940.8 0.2 83
2019-03-11 06:00:00 12.1 8 Norte 14 Norte 0 940.6 -0.2 79
2019-03-11 05:00:00 11.6 8 Norte 17 Noroeste 0 940.3 -1 82
2019-03-11 04:00:00 11.8 10 Noroeste 16 Noroeste 0 940.6 -1 80
2019-03-11 03:00:00 12.7 8 Norte 15 Norte 0 940.8 -1.2 74
2019-03-11 02:00:00 13.1 9 Noroeste 14 Noroeste 0 941.3 -0.8 72
2019-03-11 01:00:00 13 7 Noroeste 14 Norte 0 941.6 -0.4 71
2019-03-11 00:00:00 13.5 9 Norte 17 Noroeste 0 942 0.1 67
2019-03-10 23:00:00 13.8 9 Norte 17 Norte 0 942.1 0.6 66
2019-03-10 22:00:00 13.9 8 Noroeste 16 Noroeste 0 942 0.6 63
2019-03-10 21:00:00 14.2 8 Noroeste 17 Noroeste 0 941.9 0.7 59
2019-03-10 20:00:00 15.7 5 Noroeste 13 Noroeste 0 941.5 0.1 50
2019-03-10 19:00:00 18.4 6 Noroeste 16 Noroeste 0 941.4 -0.4 42
2019-03-10 18:00:00 19.7 9 Noroeste 27 Noroeste 0 941.2 -1 36
2019-03-10 17:00:00 19.8 13 Noroeste 22 Noroeste 0 941.4 -1.4 38
2019-03-10 16:00:00 20 11 Noroeste 26 Oeste 0 941.8 -1.5 36
2019-03-10 15:00:00 20 10 Noroeste 21 Noroeste 0 942.2 -1.4 38
2019-03-10 14:00:00 19.7 9 Noroeste 21 Noroeste 0 942.8 -1.1 39
2019-03-10 13:00:00 19 7 Norte 16 Noroeste 0 943.3 -0.9 39
2019-03-10 12:00:00 18.5 9 Oeste 15 Oeste 0 943.6 -0.1 39
2019-03-10 11:00:00 18.6 3 Norte 10 Nordeste 0 943.9 0.3 38
2019-03-10 10:00:00 16.8 3 Nordeste 7 Este 0 944.2 0.9 34
2019-03-10 09:00:00 14 4 Nordeste 7 Nordeste 0 943.7 0.6 45
2019-03-10 08:00:00 9.6 5 Nordeste 8 Nordeste 0 943.6 0.4 56
2019-03-10 07:00:00 9.3 5 Norte 8 Norte 0 943.3 0 61
2019-03-10 06:00:00 9.9 5 Nordeste 8 Norte 0 943.1 -0.6 57
2019-03-10 05:00:00 10 5 Norte 14 Este 0 943.2 -0.6 50
2019-03-10 04:00:00 10.2 5 Norte 9 Norte 0 943.3 -0.7 50
2019-03-10 03:00:00 10.9 4 Nordeste 8 Norte 0 943.7 -0.6 46
2019-03-10 02:00:00 11 5 Norte 9 Norte 0 943.8 -0.4 46
2019-03-10 01:00:00 11.3 5 Norte 7 Nordeste 0 944 0 47
2019-03-10 00:00:00 10.8 6 Norte 15 Norte 0 944.3 0.4 50
2019-03-09 23:00:00 10.9 6 Norte 10 Noroeste 0 944.2 0.7 52
2019-03-09 22:00:00 11 6 Nordeste 13 Norte 0 944 1 54
2019-03-09 21:00:00 12.3 7 Norte 14 Norte 0 943.9 1.1 51
2019-03-09 20:00:00 13.6 8 Norte 12 Norte 0 943.5 0.6 49
2019-03-09 19:00:00 15.9 6 Noroeste 15 Noroeste 0 943 0 42
2019-03-09 18:00:00 18 6 Noroeste 17 Noroeste 0 942.8 -0.4 33
2019-03-09 17:00:00 18.2 7 Norte 20 Norte 0 942.9 -0.9 35
2019-03-09 16:00:00 18.5 6 Noroeste 22 Norte 0 943 -1.3 32
2019-03-09 15:00:00 17.8 9 Este 20 Nordeste 0 943.2 -1.2 32
2019-03-09 14:00:00 17.5 6 Nordeste 18 Este 0 943.8 -0.8 34
2019-03-09 13:00:00 16.8 6 Nordeste 21 Este 0 944.3 -0.2 33
2019-03-09 12:00:00 16.4 6 Sudeste 22 Este 0 944.4 0.9 37
2019-03-09 11:00:00 14.9 11 Este 22 Este 0 944.6 1.9 42
2019-03-09 10:00:00 13.4 7 Nordeste 13 Nordeste 0 944.5 2.4 52
2019-03-09 09:00:00 11.1 5 Nordeste 12 Este 0 943.5 2 59
2019-03-09 08:00:00 7.3 6 Nordeste 8 Nordeste 0 942.7 1.4 70
2019-03-09 07:00:00 7.2 6 Nordeste 8 Nordeste 0 942.1 0.8 72
2019-03-09 06:00:00 7.1 7 Nordeste 9 Nordeste 0 941.5 0 74
2019-03-09 05:00:00 6.7 6 Nordeste 9 Nordeste 0 941.3 -0.2 78
2019-03-09 04:00:00 7 6 Nordeste 9 Norte 0 941.3 0.1 78
2019-03-09 03:00:00 7 5 Norte 17 Nordeste 0 941.5 0.7 79
2019-03-09 02:00:00 7.2 5 Nordeste 10 Nordeste 0 941.5 1.4 81
2019-03-09 01:00:00 7.6 6 Norte 18 Norte 0 941.2 1.8 79
2019-03-09 00:00:00 8 8 Norte 17 Norte 0 940.8 2 77
2019-03-08 23:00:00 8.1 5 Noroeste 15 Norte 0 940.1 1.9 74
2019-03-08 22:00:00 9 8 Norte 18 Norte 0 939.4 2.4 70
2019-03-08 21:00:00 9.9 7 Norte 14 Norte 0 938.8 2.5 65
2019-03-08 20:00:00 11.2 5 Norte 14 Norte 0 938.2 2.2 60
2019-03-08 19:00:00 13.7 3 Sur 11 Nordeste 0 937 1.1 54
2019-03-08 18:00:00 14.9 6 Noroeste 17 Norte 0 936.3 0.5 47
2019-03-08 17:00:00 14.6 7 Noroeste 18 Noroeste 0 936 -0.2 49
2019-03-08 16:00:00 14.4 5 Noroeste 19 Norte 0 935.9 -0.4 52
2019-03-08 15:00:00 13.1 8 Nordeste 22 Norte 0 935.8 -0.1 56
2019-03-08 14:00:00 13.2 8 Norte 17 Norte 0 936.2 0.6 57
2019-03-08 13:00:00 10.8 5 Norte 12 Norte 0 936.3 1.1 68
2019-03-08 12:00:00 10.1 3 Nordeste 12 Norte 0 935.9 1.7 70
2019-03-08 11:00:00 9.1 5 Noroeste 11 Oeste 0 935.6 2.4 80
2019-03-08 10:00:00 7.9 5 Sur 9 Sur 0 935.2 2.5 94
2019-03-08 09:00:00 6.2 4 Sur 8 Sudeste 0 934.2 2.1 93
2019-03-08 08:00:00 5.9 5 Sur 11 Sur 0 933.2 1.4 93
2019-03-08 07:00:00 6 5 Sur 12 Sudeste 0 932.7 0.6 92
2019-03-08 06:00:00 5.8 6 Sur 15 Sudeste 0 932.1 -0.3 92
2019-03-08 05:00:00 5.7 6 Sur 11 Sur 0.2 931.8 -0.2 90
2019-03-08 04:00:00 6 4 Sur 10 Sur 0 932.1 0 90
2019-03-08 03:00:00 6.2 3 Sudeste 18 Sudoeste 0 932.4 0.5 89
2019-03-08 02:00:00 6.6 9 Sudoeste 16 Sudoeste 0.2 932 0.1 86
2019-03-08 01:00:00 7.1 9 Sur 17 Sur 0 932.1 0.7 82
2019-03-08 00:00:00 7.2 9 Sur 16 Sur 0 931.9 0.9 79
2019-03-07 23:00:00 6.8 8 Sur 17 Sur 0 931.9 0.7 77
2019-03-07 22:00:00 7 8 Sur 17 Sur 0 931.4 0.9 76
2019-03-07 21:00:00 7.7 9 Sur 17 Sur 0 931 1 76
2019-03-07 20:00:00 7.9 6 Sur 14 Sur 0 931.2 0.9 75
2019-03-07 19:00:00 9.1 8 Sur 22 Sur 0 930.5 -0.1 69
2019-03-07 18:00:00 10.7 10 Sudoeste 23 Oeste 0 930 -1 57
2019-03-07 17:00:00 11.4 11 Oeste 31 Oeste 0 930.3 -1.5 50
2019-03-07 16:00:00 10.9 8 Oeste 24 Sudoeste 0 930.6 -1.9 52
2019-03-07 15:00:00 10.4 9 Oeste 17 Oeste 0 931 -2.1 53
2019-03-07 14:00:00 9.5 8 Norte 22 Noroeste 0 931.8 -1.4 54
2019-03-07 13:00:00 9.7 9 Oeste 21 Oeste 0 932.5 -0.2 62
2019-03-07 12:00:00 8.5 12 Oeste 23 Oeste 0 933.1 1.1 64
2019-03-07 11:00:00 7.1 5 Oeste 16 Oeste 0 933.2 1.7 77
2019-03-07 10:00:00 5.1 8 Norte 17 Noroeste 0 932.7 1.6 86
2019-03-07 09:00:00 4.5 7 Noroeste 15 Norte 0 932 1.2 92
2019-03-07 08:00:00 4.2 9 Noroeste 19 Noroeste 0 931.5 1 93
2019-03-07 07:00:00 4 8 Noroeste 18 Noroeste 0 931.1 0.6 93
2019-03-07 06:00:00 3.9 9 Oeste 18 Noroeste 0 930.8 0 93
2019-03-07 05:00:00 4 8 Noroeste 15 Noroeste 0 930.5 -0.3 93
2019-03-07 04:00:00 3.8 9 Oeste 17 Oeste 0 930.5 -0.2 92
2019-03-07 03:00:00 3.8 10 Oeste 16 Oeste 0 930.8 0 91
2019-03-07 02:00:00 4.5 10 Oeste 18 Oeste 0 930.8 0.6 89
2019-03-07 01:00:00 5.2 10 Oeste 23 Oeste 0 930.7 1.3 87
2019-03-07 00:00:00 5.4 12 Oeste 23 Oeste 0 930.8 2.2 85
2019-03-06 23:00:00 5.8 9 Oeste 26 Oeste 0 930.2 2.3 80
2019-03-06 22:00:00 6.7 16 Oeste 36 Oeste 0 929.4 2.8 75
2019-03-06 21:00:00 7.3 13 Sudoeste 24 Oeste 0 928.6 3.1 76
2019-03-06 20:00:00 7.8 15 Oeste 31 Oeste 0 927.9 3.2 71
2019-03-06 19:00:00 8.7 15 Oeste 38 Oeste 0 926.6 2.3 70
2019-03-06 18:00:00 9.2 19 Oeste 41 Oeste 0 925.5 2.6 70
2019-03-06 17:00:00 9.3 28 Oeste 49 Oeste 0.2 924.7 1.6 70
2019-03-06 16:00:00 8.4 21 Oeste 54 Oeste 1.2 924.3 0.7 91
2019-03-06 15:00:00 10.1 24 Sudoeste 60 Sur 2.4 922.9 -0.9 89
2019-03-06 14:00:00 10.6 26 Sudoeste 66 Sudoeste 0.6 923.1 -1.2 88
2019-03-06 13:00:00 9.9 34 Sudoeste 71 Sudoeste 2.2 923.6 0 87
2019-03-06 12:00:00 9.9 17 Sudoeste 50 Sudoeste 2 923.8 -0.1 93
2019-03-06 11:00:00 9.5 21 Sur 54 Sudoeste 2.2 924.3 -0.2 93
2019-03-06 10:00:00 9.4 24 Sur 64 Sur 0.8 923.6 -1.1 92
2019-03-06 09:00:00 9.3 19 Sur 51 Sur 0 923.9 -1.2 88
2019-03-06 08:00:00 8.8 19 Sur 48 Sur 0 924.5 -0.1 84
2019-03-06 07:00:00 9 18 Sur 49 Sudoeste 0 924.7 -0.9 82
2019-03-06 06:00:00 9.6 26 Sudoeste 53 Sur 0 925.1 -1.7 82
2019-03-06 05:00:00 10.3 21 Sur 44 Sudoeste 0.2 924.6 -2.1 86
2019-03-06 04:00:00 10.8 14 Sur 36 Sudoeste 0 925.6 -1.9 93
2019-03-06 03:00:00 10.7 11 Sur 26 Sudeste 0 926.8 -1.3 93
2019-03-06 02:00:00 10.7 13 Sur 24 Sur 0 926.7 -2 93
2019-03-06 01:00:00 10.6 10 Sur 22 Sur 0 927.5 -1.7 92
2019-03-06 00:00:00 10.8 11 Sur 22 Sur 0 928.1 -1.5 92
2019-03-05 23:00:00 10.9 9 Sur 17 Sur 0 928.7 -1.2 92
2019-03-05 22:00:00 11.4 8 Sur 17 Sur 0 929.2 -0.9 92
2019-03-05 21:00:00 11.6 8 Sur 22 Sur 0 929.6 -0.6 91
2019-03-05 20:00:00 11.9 11 Sur 24 Sur 0 929.9 -0.9 90
2019-03-05 19:00:00 12.4 9 Sur 23 Sudoeste 0.2 930.1 -1.2 87
2019-03-05 18:00:00 13.9 11 Sur 22 Sudoeste 0 930.2 -1.4 74
2019-03-05 17:00:00 14.6 11 Sur 31 Sudoeste 0 930.8 -1.5 72
2019-03-05 16:00:00 15.2 15 Sudoeste 27 Sudoeste 0 931.3 -1.8 67
2019-03-05 15:00:00 15.1 12 Sur 31 Sudoeste 0 931.6 -1.9 68
2019-03-05 14:00:00 15.2 14 Sur 30 Sudoeste 0 932.3 -1.4 62
2019-03-05 13:00:00 14.4 14 Sudoeste 29 Sur 0 933.1 -0.6 62
2019-03-05 12:00:00 13.6 13 Sudoeste 24 Oeste 0 933.5 0.2 65
2019-03-05 11:00:00 11.6 12 Sudoeste 22 Sudoeste 0 933.7 0.8 77
2019-03-05 10:00:00 10.3 8 Sudoeste 21 Sudoeste 0 933.7 0.9 85
2019-03-05 09:00:00 9.3 9 Sudoeste 13 Sudoeste 0 933.3 0.9 86
2019-03-05 08:00:00 8.7 5 Oeste 15 Oeste 0 932.9 0.1 88
2019-03-05 07:00:00 9.3 10 Oeste 18 Sudoeste 0 932.8 -0.1 89
2019-03-05 06:00:00 8.8 5 Sudoeste 14 Noroeste 0 932.4 -1.2 90
2019-03-05 05:00:00 9.2 7 Noroeste 19 Sudoeste 0 932.8 -1.2 91
2019-03-05 04:00:00 9.8 10 Sudoeste 17 Sur 0 932.9 -1.4 93
2019-03-05 03:00:00 9.8 6 Sur 13 Sur 0 933.6 -0.8 92
2019-03-05 02:00:00 9.5 9 Sudoeste 19 Sudoeste 0 934 -0.8 91
2019-03-05 01:00:00 9.9 8 Sur 17 Sur 0 934.3 -0.1 90
2019-03-05 00:00:00 10.2 8 Sur 16 Sudoeste 0 934.4 0.1 89
2019-03-04 23:00:00 10.6 10 Sudoeste 17 Sudoeste 0 934.8 0.7 88
2019-03-04 22:00:00 10.5 8 Sur 15 Sudoeste 0 934.4 0.4 83
2019-03-04 21:00:00 11.9 8 Sudoeste 17 Sudoeste 0 934.3 0.3 80
2019-03-04 20:00:00 12.2 8 Sudoeste 18 Oeste 0 934.1 -0.1 71
2019-03-04 19:00:00 13.6 10 Oeste 27 Oeste 0 934 -0.6 65
2019-03-04 18:00:00 14.6 15 Oeste 37 Oeste 0 934 -1 62
2019-03-04 17:00:00 15.2 19 Oeste 30 Oeste 0 934.2 -1.6 61
2019-03-04 16:00:00 14.5 17 Oeste 30 Oeste 0 934.6 -1.4 68
2019-03-04 15:00:00 14.2 13 Oeste 29 Oeste 0 935 -1.2 74
2019-03-04 14:00:00 14.1 16 Oeste 31 Oeste 0 935.8 -0.6 70
2019-03-04 13:00:00 15.6 12 Oeste 32 Oeste 0 936 -0.4 51
2019-03-04 12:00:00 15.3 12 Oeste 25 Sudoeste 0 936.2 0.3 50
2019-03-04 11:00:00 13.9 9 Sudoeste 18 Sudoeste 0 936.4 1.1 55
2019-03-04 10:00:00 11.7 6 Oeste 12 Oeste 0 936.4 1.2 67
2019-03-04 09:00:00 8.2 5 Sur 10 Sudoeste 0 935.9 1 92
2019-03-04 08:00:00 6.1 8 Sudoeste 11 Sudoeste 0 935.3 0 91
2019-03-04 07:00:00 5.6 4 Noroeste 9 Sudoeste 0 935.2 -0.3 89
2019-03-04 06:00:00 6.6 5 Oeste 15 Noroeste 0 934.9 -1.2 86
2019-03-04 05:00:00 7.6 8 Noroeste 17 Noroeste 0 935.3 -1.1 84
2019-03-04 04:00:00 8.9 9 Noroeste 17 Noroeste 0 935.5 -0.7 79
2019-03-04 03:00:00 8.7 8 Noroeste 19 Noroeste 0 936.1 -0.3 79
2019-03-04 02:00:00 9.4 11 Noroeste 25 Noroeste 0 936.4 -0.1 75
2019-03-04 01:00:00 10.9 10 Noroeste 19 Noroeste 0 936.2 0.1 66
2019-03-04 00:00:00 10.8 8 Noroeste 13 Noroeste 0 936.4 0.4 65
2019-03-03 23:00:00 11.5 7 Noroeste 26 Oeste 0 936.5 0.5 59
2019-03-03 22:00:00 13.6 9 Sudoeste 20 Oeste 0 936.1 0.5 42
2019-03-03 21:00:00 14.2 11 Sudoeste 19 Sudoeste 0 936 0.5 39
2019-03-03 20:00:00 15.1 10 Sudoeste 17 Sudoeste 0 936 0.1 34
2019-03-03 19:00:00 17.9 9 Sudoeste 20 Sudoeste 0 935.6 -0.9 27
2019-03-03 18:00:00 20.2 9 Sudoeste 25 Sur 0 935.5 -1.5 28
2019-03-03 17:00:00 21.4 9 Sudoeste 23 Sudoeste 0 935.9 -1.8 28
2019-03-03 16:00:00 21.1 10 Sudoeste 28 Sudoeste 0 936.5 -2.1 26
2019-03-03 15:00:00 21.2 11 Sudoeste 29 Sudoeste 0 937 -1.9 29
2019-03-03 14:00:00 20.6 10 Sur 22 Sur 0 937.7 -1.6 30
2019-03-03 13:00:00 19.8 9 Sur 19 Sur 0 938.6 -0.6 33
2019-03-03 12:00:00 19 9 Sur 20 Sudoeste 0 938.9 0.1 35
2019-03-03 11:00:00 18 6 Sur 16 Sudeste 0 939.3 1 42
2019-03-03 10:00:00 16 5 Sur 11 Sudeste 0 939.2 1.3 47
2019-03-03 09:00:00 11.7 5 Sur 11 Sur 0 938.8 1.1 57
2019-03-03 08:00:00 11.6 6 Este 19 Este 0 938.3 0.6 51
2019-03-03 07:00:00 11.5 6 Sudeste 10 Sudeste 0 937.9 -0.2 51
2019-03-03 06:00:00 11.1 6 Este 8 Este 0 937.7 -0.7 56
2019-03-03 05:00:00 11 6 Este 7 Este 0 937.7 -0.8 59
2019-03-03 04:00:00 10.1 6 Nordeste 10 Nordeste 0 938.1 -0.5 63
2019-03-03 03:00:00 10.2 6 Nordeste 12 Norte 0 938.4 -0.6 63
2019-03-03 02:00:00 10.6 7 Norte 10 Norte 0 938.5 -0.8 61
2019-03-03 01:00:00 11.1 7 Norte 11 Norte 0 938.6 -0.6 58
2019-03-03 00:00:00 11.1 6 Norte 12 Noroeste 0 939 0.2 57
2019-03-02 23:00:00 11.1 7 Noroeste 11 Noroeste 0 939.3 0.8 55
2019-03-02 22:00:00 11.7 7 Noroeste 12 Noroeste 0 939.2 0.9 53
2019-03-02 21:00:00 12.8 8 Noroeste 17 Norte 0 938.8 0.5 50
2019-03-02 20:00:00 13.4 8 Noroeste 12 Noroeste 0 938.5 0.2 48
2019-03-02 19:00:00 16.1 6 Noroeste 21 Noroeste 0 938.3 0.1 40
2019-03-02 18:00:00 17.6 9 Noroeste 21 Noroeste 0 938.3 -0.2 36
2019-03-02 17:00:00 18.4 9 Noroeste 23 Noroeste 0 938.3 -0.6 35
2019-03-02 16:00:00 18.5 9 Noroeste 23 Norte 0 938.2 -1.2 34
2019-03-02 15:00:00 18.6 8 Norte 22 Norte 0 938.5 -1 37
2019-03-02 14:00:00 18.2 7 Norte 16 Norte 0 938.9 -0.5 34
2019-03-02 13:00:00 18 4 Sur 17 Sudeste 0 939.4 0.3 41
2019-03-02 12:00:00 16 7 Sudeste 17 Sudeste 0 939.5 0.9 41
2019-03-02 11:00:00 13.5 5 Noroeste 10 Noroeste 0 939.4 1.1 62
2019-03-02 10:00:00 12.3 4 Nordeste 10 Nordeste 0 939.1 1 62
2019-03-02 09:00:00 9.2 4 Norte 9 Noroeste 0 938.6 0.8 80
2019-03-02 08:00:00 6.7 5 Norte 19 Norte 0 938.3 0.7 87
2019-03-02 07:00:00 6.5 9 Noroeste 18 Noroeste 0 938.1 0.4 86
2019-03-02 06:00:00 6.7 8 Noroeste 14 Noroeste 0 937.8 -0.2 85
2019-03-02 05:00:00 7.6 9 Noroeste 18 Noroeste 0 937.6 -0.3 80
2019-03-02 04:00:00 8.3 9 Noroeste 15 Norte 0 937.7 -0.5 76
2019-03-02 03:00:00 8.9 9 Noroeste 17 Noroeste 0 938 -0.3 71
2019-03-02 02:00:00 9 8 Noroeste 12 Oeste 0 937.9 -0.2 66
2019-03-02 01:00:00 9.2 10 Oeste 15 Oeste 0 938.2 0.3 68
2019-03-02 00:00:00 9.7 8 Noroeste 11 Noroeste 0 938.3 0.4 62
2019-03-01 23:00:00 10.2 6 Noroeste 11 Noroeste 0 938.1 0.5 60
2019-03-01 22:00:00 11 6 Noroeste 12 Noroeste 0 937.9 0.9 60
2019-03-01 21:00:00 11.9 5 Noroeste 13 Noroeste 0 937.9 1.4 57
2019-03-01 20:00:00 13 8 Noroeste 13 Noroeste 0 937.6 1 50
2019-03-01 19:00:00 14.5 7 Sudoeste 20 Sudoeste 0 937 0.2 44
2019-03-01 18:00:00 15.9 12 Sudoeste 23 Sudoeste 0 936.5 -0.5 45
2019-03-01 17:00:00 17.6 9 Sudoeste 19 Sudoeste 0 936.6 -1.1 36
2019-03-01 16:00:00 19 9 Sudoeste 18 Sudoeste 0 936.8 -1.4 29
2019-03-01 15:00:00 18.2 9 Sudoeste 18 Sur 0 937 -1.5 31
2019-03-01 14:00:00 18.4 9 Sudoeste 17 Sudoeste 0 937.7 -0.9 33
2019-03-01 13:00:00 18.3 6 Sur 15 Sudoeste 0 938.2 -0.3 36
2019-03-01 12:00:00 17.5 6 Sudoeste 14 Sudoeste 0 938.5 0.2 34
2019-03-01 11:00:00 15.9 5 Sur 14 Sudoeste 0 938.6 0.5 36
2019-03-01 10:00:00 13 4 Sur 13 Sur 0 938.5 0.4 48
2019-03-01 09:00:00 10.7 3 Este 5 Norte 0 938.3 0.2 45
2019-03-01 08:00:00 9 5 Norte 9 Nordeste 0 938.1 0.1 47
2019-03-01 07:00:00 7.5 8 Nordeste 11 Norte 0 938.1 0 68
2019-03-01 06:00:00 8.2 7 Norte 13 Norte 0 938.1 -0.6 65
2019-03-01 05:00:00 9.3 9 Noroeste 14 Noroeste 0 938 -1 58
2019-03-01 04:00:00 10.2 7 Norte 9 Norte 0 938.1 -1 49
2019-03-01 03:00:00 9.7 5 Norte 12 Norte 0 938.7 -1 50
2019-03-01 02:00:00 9.9 6 Norte 14 Noroeste 0 939 -0.9 53
2019-03-01 01:00:00 10.3 7 Norte 14 Norte 0 939.1 -0.8 50
2019-03-01 00:00:00 11.1 9 Noroeste 17 Noroeste 0 939.7 -0.1 45
2019-02-28 23:00:00 11.5 8 Noroeste 13 Noroeste 0 939.9 0.1 47
2019-02-28 22:00:00 12.1 7 Noroeste 12 Noroeste 0 939.9 0.3 46
2019-02-28 21:00:00 12.7 7 Noroeste 13 Noroeste 0 939.8 0.2 39
2019-02-28 20:00:00 13.4 7 Norte 16 Norte 0 939.8 0 42
2019-02-28 19:00:00 14.8 8 Norte 15 Norte 0 939.6 -0.5 40
2019-02-28 18:00:00 16.9 8 Norte 18 Noroeste 0 939.6 -0.9 32
2019-02-28 17:00:00 18.7 8 Noroeste 19 Noroeste 0 939.8 -1.5 27
2019-02-28 16:00:00 19.5 10 Oeste 18 Oeste 0 940.1 -1.8 25
2019-02-28 15:00:00 19.2 9 Oeste 20 Norte 0 940.5 -1.6 24
2019-02-28 14:00:00 18.3 5 Noroeste 17 Oeste 0 941.3 -0.9 28
2019-02-28 13:00:00 17.1 8 Noroeste 14 Noroeste 0 941.9 0 34
2019-02-28 12:00:00 15.9 6 Norte 16 Norte 0 942.1 0.4 36
2019-02-28 11:00:00 13.9 7 Norte 18 Norte 0 942.2 0.9 44
2019-02-28 10:00:00 11.9 6 Norte 20 Noroeste 0 941.9 0.7 48
2019-02-28 09:00:00 8.7 8 Norte 19 Norte 0 941.7 0.8 56
2019-02-28 08:00:00 6.8 10 Noroeste 19 Noroeste 0 941.3 0.6 59
2019-02-28 07:00:00 7.6 8 Norte 17 Norte 0 941.2 0.2 56
2019-02-28 06:00:00 7.5 9 Noroeste 15 Noroeste 0 940.9 -0.5 54
2019-02-28 05:00:00 7.3 9 Noroeste 14 Noroeste 0 940.7 -0.7 54
2019-02-28 04:00:00 7.7 8 Noroeste 15 Noroeste 0 941 -0.6 52
2019-02-28 03:00:00 8.3 8 Noroeste 19 Noroeste 0 941.4 -0.3 51
2019-02-28 02:00:00 8.9 11 Noroeste 18 Noroeste 0 941.4 -0.2 49
2019-02-28 01:00:00 9.4 9 Noroeste 18 Noroeste 0 941.6 0.1 48
2019-02-28 00:00:00 10.1 8 Noroeste 16 Noroeste 0 941.7 0.6 47
2019-02-27 23:00:00 10.4 9 Norte 18 Noroeste 0 941.6 0.7 46
2019-02-27 22:00:00 11 10 Noroeste 18 Norte 0 941.5 1.1 44
2019-02-27 21:00:00 12 10 Noroeste 22 Noroeste 0 941.1 0.9 41
2019-02-27 20:00:00 13.2 7 Norte 20 Norte 0 940.9 0.7 36
2019-02-27 19:00:00 14.9 7 Noroeste 11 Nordeste 0 940.4 0.2 29
2019-02-27 18:00:00 18.4 6 Oeste 14 Oeste 0 940.2 -0.5 20
2019-02-27 17:00:00 19.1 7 Oeste 18 Oeste 0 940.2 -1 20
2019-02-27 16:00:00 19.5 6 Oeste 14 Sudoeste 0 940.2 -1.6 23
2019-02-27 15:00:00 19 4 Sudoeste 14 Sur 0 940.7 -0.7 24
2019-02-27 14:00:00 18.1 10 Sudoeste 24 Sudoeste 0 941.2 -0.2 24
2019-02-27 13:00:00 17.8 8 Sur 21 Sur 0 941.8 0.5 23
2019-02-27 12:00:00 17 9 Sudeste 21 Sudoeste 0 941.4 0.2 28
2019-02-27 11:00:00 16 6 Sur 14 Sur 0 941.4 0.5 30
2019-02-27 10:00:00 13.6 6 Este 13 Este 0 941.3 0.5 32
2019-02-27 09:00:00 10 5 Este 13 Sudeste 0 941.2 0.7 40
2019-02-27 08:00:00 7.5 8 Sudeste 13 Sudeste 0 940.9 0.2 42
2019-02-27 07:00:00 6.4 6 Este 11 Este 0 940.8 -0.2 49
2019-02-27 06:00:00 6.1 4 Nordeste 8 Nordeste 0 940.5 -0.9 52
2019-02-27 05:00:00 7.2 4 Noroeste 8 Sudoeste 0 940.7 -0.7 49
2019-02-27 04:00:00 7.4 5 Sudoeste 8 Oeste 0 941 -0.5 47
2019-02-27 03:00:00 7.6 5 Sudeste 9 Sudeste 0 941.4 0 47
2019-02-27 02:00:00 7.9 7 Sur 12 Sur 0 941.4 0.3 46
2019-02-27 01:00:00 8.2 8 Sur 15 Sudeste 0 941.5 0.5 47
2019-02-27 00:00:00 8.6 9 Sur 20 Sur 0 941.4 0.9 48
2019-02-26 23:00:00 9.6 9 Sur 15 Sur 0 941.1 0.6 46
2019-02-26 22:00:00 11 8 Sur 14 Sur 0 941 0.7 36
2019-02-26 21:00:00 13.3 3 Sur 6 Sudoeste 0 940.5 0.5 28
2019-02-26 20:00:00 13.9 5 Sur 8 Sudeste 0 940.5 0.4 28
2019-02-26 19:00:00 17.1 4 Sudeste 15 Sudeste 0 940.3 0.4 26
2019-02-26 18:00:00 19.1 6 Sur 19 Sur 0 940 -0.3 23
2019-02-26 17:00:00 19.6 11 Sur 24 Sur 0 940.1 -0.9 22
2019-02-26 16:00:00 19.8 12 Sur 26 Sur 0 939.9 -1.4 23
2019-02-26 15:00:00 19.4 12 Sudeste 41 Este 0 940.3 -1.2 23
2019-02-26 14:00:00 18.7 14 Este 37 Sudeste 0 941 -0.4 21
2019-02-26 13:00:00 18.5 14 Sudeste 29 Sur 0 941.3 -0.1 26
2019-02-26 12:00:00 17.7 11 Sudeste 24 Sudeste 0 941.5 0.7 28
2019-02-26 11:00:00 16.2 10 Sudeste 20 Este 0 941.4 0.9 30
2019-02-26 10:00:00 13.4 11 Este 22 Este 0 941.4 0.9 33
2019-02-26 09:00:00 11.1 6 Este 16 Este 0 940.8 0.8 41
2019-02-26 08:00:00 8.8 9 Este 16 Este 0 940.5 0.4 55
2019-02-26 07:00:00 9.7 8 Sudeste 16 Este 0 940.5 -0.1 49
2019-02-26 06:00:00 9.5 9 Este 15 Este 0 940 -1.2 51
2019-02-26 05:00:00 9.5 8 Sudeste 13 Sudeste 0 940.1 -1.3 52
2019-02-26 04:00:00 9.4 6 Sudeste 13 Sudeste 0 940.6 -1.2 58
2019-02-26 03:00:00 9.9 8 Sudeste 13 Sudeste 0 941.2 -0.6 55
2019-02-26 02:00:00 9.1 8 Sur 13 Sudeste 0 941.4 -0.6 56
2019-02-26 01:00:00 9.5 7 Sur 14 Sur 0 941.8 -0.1 54
2019-02-26 00:00:00 10 9 Sur 13 Sur 0 941.8 0.2 51
2019-02-25 23:00:00 10.3 7 Sur 11 Sur 0 942 0.4 52
2019-02-25 22:00:00 10.6 7 Sur 9 Sur 0 941.9 0.6 51
2019-02-25 21:00:00 11.2 5 Sudoeste 14 Sur 0 941.6 0.5 50
2019-02-25 20:00:00 13 7 Sur 13 Sur 0 941.6 0.4 44
2019-02-25 19:00:00 17.3 6 Sur 12 Sur 0 941.3 -0.2 33
2019-02-25 18:00:00 19.2 2 Nordeste 12 Este 0 941.1 -1 27
2019-02-25 17:00:00 19.2 4 Norte 14 Sudeste 0 941.2 -1.6 25
2019-02-25 16:00:00 19.2 5 Nordeste 18 Sur 0 941.5 -1.9 27
2019-02-25 15:00:00 18.8 6 Sudeste 16 Sudeste 0 942.1 -1.5 28
2019-02-25 14:00:00 18.8 4 Sur 18 Sudeste 0 942.8 -1 33
2019-02-25 13:00:00 18.3 6 Sudeste 18 Sudeste 0 943.4 -0.2 33
2019-02-25 12:00:00 16.9 4 Sur 14 Sur 0 943.6 0.1 40
2019-02-25 11:00:00 15.5 5 Sudeste 14 Este 0 943.8 0.9 39
2019-02-25 10:00:00 13.8 7 Sudeste 13 Sudeste 0 943.6 0.7 40
2019-02-25 09:00:00 10.4 4 Este 6 Sudeste 0 943.5 0.6 41
2019-02-25 08:00:00 7.8 4 Sudeste 7 Sudeste 0 942.9 -0.1 48
2019-02-25 07:00:00 8.2 5 Sudeste 7 Sudeste 0 942.9 -0.3 52
2019-02-25 06:00:00 8 0 Calma 6 Sur 0 942.9 -0.6 53
2019-02-25 05:00:00 8.4 2 Este 4 Oeste 0 943 -0.8 52
2019-02-25 04:00:00 8.5 4 Oeste 13 Norte 0 943.2 -0.4 51
2019-02-25 03:00:00 9.2 7 Noroeste 12 Oeste 0 943.5 0.1 50
2019-02-25 02:00:00 9.4 5 Noroeste 12 Noroeste 0 943.8 0.6 48
2019-02-25 01:00:00 9.9 5 Oeste 9 Oeste 0 943.6 0.5 46
2019-02-25 00:00:00 10.6 6 Oeste 11 Noroeste 0 943.4 0.8 43
2019-02-24 23:00:00 11.3 5 Noroeste 9 Oeste 0 943.2 0.7 38
2019-02-24 22:00:00 11.7 5 Noroeste 8 Noroeste 0 943.1 1.1 34
2019-02-24 21:00:00 12.6 4 Sudoeste 9 Sur 0 942.6 1 32
2019-02-24 20:00:00 13.8 6 Sur 12 Sur 0 942.5 1.3 32
2019-02-24 19:00:00 18.3 6 Sur 10 Sudoeste 0 942 0.7 24
2019-02-24 18:00:00 20.1 0 Calma 12 Sur 0 941.6 0.2 20
2019-02-24 17:00:00 20.6 5 Sur 16 Sudeste 0 941.2 -0.7 21
2019-02-24 16:00:00 21 5 Sur 16 Sur 0 941.3 -1 20
2019-02-24 15:00:00 20.5 5 Sur 18 Sudoeste 0 941.4 -0.7 24
2019-02-24 14:00:00 19.9 5 Sur 21 Sur 0 941.9 0.3 22
2019-02-24 13:00:00 19.4 7 Sur 21 Este 0 942.3 1.1 25
2019-02-24 12:00:00 18.3 8 Sudeste 18 Sudeste 0 942.1 1.7 26
2019-02-24 11:00:00 16.1 5 Sudeste 20 Sudeste 0 941.6 1.7 35
2019-02-24 10:00:00 11.8 2 Sur 10 Este 0 941.2 1.5 49
2019-02-24 09:00:00 8.5 6 Este 10 Nordeste 0 940.4 0.7 50
2019-02-24 08:00:00 8 8 Nordeste 10 Nordeste 0 939.9 0.3 53
2019-02-24 07:00:00 8.3 5 Norte 9 Norte 0 939.7 -0.1 53
2019-02-24 06:00:00 8.5 6 Norte 10 Norte 0 939.7 -0.6 53
2019-02-24 05:00:00 8.7 6 Nordeste 18 Este 0 939.6 -1 52
2019-02-24 04:00:00 8.4 7 Nordeste 19 Este 0 939.8 -0.9 57
2019-02-24 03:00:00 8.5 5 Norte 12 Nordeste 0 940.3 -0.5 60
2019-02-24 02:00:00 8.7 8 Nordeste 14 Norte 0 940.6 -0.1 63
2019-02-24 01:00:00 10 8 Norte 17 Norte 0 940.7 -0.1 59
2019-02-24 00:00:00 10.1 8 Norte 14 Norte 0 940.8 0 58
2019-02-23 23:00:00 10.1 8 Norte 17 Norte 0 940.7 0 60
2019-02-23 22:00:00 10.6 9 Norte 16 Norte 0 940.8 0.4 58
2019-02-23 21:00:00 11 9 Norte 17 Noroeste 0 940.8 0.5 56
2019-02-23 20:00:00 11.6 8 Norte 17 Norte 0 940.7 0.1 53
2019-02-23 19:00:00 13.1 9 Noroeste 16 Norte 0 940.4 -0.6 46
2019-02-23 18:00:00 15.3 7 Noroeste 17 Norte 0 940.3 -1.1 36
2019-02-23 17:00:00 16.8 10 Noroeste 19 Noroeste 0 940.6 -1.6 30
2019-02-23 16:00:00 17 8 Norte 16 Noroeste 0 941 -2 28
2019-02-23 15:00:00 17.1 6 Noroeste 19 Nordeste 0 941.4 -2.1 30
2019-02-23 14:00:00 17 8 Norte 18 Norte 0 942.2 -1.3 27
2019-02-23 13:00:00 16.7 8 Norte 21 Noroeste 0 943 -0.3 26
2019-02-23 12:00:00 16.2 9 Norte 18 Norte 0 943.5 0.3 31
2019-02-23 11:00:00 15.6 10 Nordeste 17 Nordeste 0 943.5 1 30
2019-02-23 10:00:00 13.9 7 Nordeste 14 Nordeste 0 943.3 0.8 39
2019-02-23 09:00:00 9.6 5 Norte 11 Norte 0 943.2 1 50
2019-02-23 08:00:00 8.2 7 Norte 14 Noroeste 0 942.5 0.5 51
2019-02-23 07:00:00 8.5 7 Norte 14 Noroeste 0 942.5 0.2 47
2019-02-23 06:00:00 9.1 8 Noroeste 13 Norte 0 942.2 -0.5 44
2019-02-23 05:00:00 8.8 6 Norte 12 Norte 0 942 -1 44
2019-02-23 04:00:00 8.7 7 Norte 13 Norte 0 942.3 -1 45
2019-02-23 03:00:00 9.5 6 Norte 11 Norte 0 942.7 -0.7 41
2019-02-23 02:00:00 9.7 6 Norte 12 Norte 0 943 -0.5 38
2019-02-23 01:00:00 10.2 5 Noroeste 9 Oeste 0 943.3 0.1 32
2019-02-23 00:00:00 10.5 6 Sudoeste 8 Sudoeste 0 943.4 0.5 33
2019-02-22 23:00:00 11 2 Sudoeste 8 Sudoeste 0 943.5 0.5 33
2019-02-22 22:00:00 10.4 6 Sudoeste 9 Sudoeste 0 943.2 0.6 34
2019-02-22 21:00:00 11.1 8 Sur 10 Sudoeste 0 942.9 0.5 33
2019-02-22 20:00:00 12.5 7 Sudoeste 9 Sudoeste 0 943 0.6 30
2019-02-22 19:00:00 15.7 5 Sur 12 Sudoeste 0 942.6 0.1 26
2019-02-22 18:00:00 18.2 7 Sur 17 Sudoeste 0 942.4 -0.2 22
2019-02-22 17:00:00 19.5 6 Sur 17 Sur 0 942.4 -0.5 20
2019-02-22 16:00:00 19.7 7 Sur 21 Sur 0 942.5 -0.8 20
2019-02-22 15:00:00 19.4 11 Sur 26 Sur 0 942.6 -1.1 21
2019-02-22 14:00:00 19 9 Sur 27 Sudoeste 0 942.9 -0.7 26
2019-02-22 13:00:00 17.9 10 Sudeste 23 Sudeste 0 943.3 -0.1 25
2019-02-22 12:00:00 17.1 8 Sudeste 26 Sur 0 943.7 0.6 30
2019-02-22 11:00:00 15.8 8 Sudeste 16 Sudeste 0 943.6 0.8 36
2019-02-22 10:00:00 12.8 8 Este 18 Sudeste 0 943.4 0.4 41
2019-02-22 09:00:00 10 6 Este 17 Este 0 943.1 0.1 46
2019-02-22 08:00:00 8.3 9 Este 19 Este 0 942.8 0 50
2019-02-22 07:00:00 8 8 Sudeste 16 Sudeste 0 943 0.2 50
2019-02-22 06:00:00 7.9 8 Sudeste 14 Sudeste 0 943 0.2 44
2019-02-22 05:00:00 8.2 8 Sudeste 14 Sudeste 0 942.8 -0.3 46
2019-02-22 04:00:00 8.2 8 Sur 15 Nordeste 0 942.8 -0.2 46
2019-02-22 03:00:00 10.2 7 Este 14 Este 0 942.8 -0.2 40
2019-02-22 02:00:00 10.7 7 Sudeste 13 Sudeste 0 943.1 0.4 40
2019-02-22 01:00:00 9.9 6 Sudeste 9 Sudeste 0 943 0.7 41
2019-02-22 00:00:00 10 5 Sur 8 Sudeste 0 943 1.5 39
2019-02-21 23:00:00 10.1 6 Sur 9 Sudeste 0 942.7 1.7 40
2019-02-21 22:00:00 10.2 5 Sudeste 9 Sudeste 0 942.3 2.1 39
2019-02-21 21:00:00 10.4 6 Sur 10 Sudeste 0 941.5 1.5 40
2019-02-21 20:00:00 11 6 Sur 10 Sudeste 0 941 1 38
2019-02-21 19:00:00 13.8 6 Sur 12 Sudeste 0 940.2 0.3 33
2019-02-21 18:00:00 16.4 6 Sur 17 Sur 0 940 0.4 28
2019-02-21 17:00:00 17.6 8 Sur 18 Sur 0 940 0.2 25
2019-02-21 16:00:00 17.8 8 Sur 21 Sur 0 939.9 -0.2 29
2019-02-21 15:00:00 17.7 8 Sur 21 Sur 0 939.6 -0.6 31
2019-02-21 14:00:00 16.9 8 Sur 24 Sudeste 0 939.8 0 37
2019-02-21 13:00:00 16.1 10 Sur 21 Sudeste 0 940.1 0.8 38
2019-02-21 12:00:00 14.6 12 Sur 21 Sur 0 940.2 1.6 45
2019-02-21 11:00:00 12.8 12 Sur 22 Sur 0 939.8 1.7 53
2019-02-21 10:00:00 10.1 10 Sudeste 18 Sur 0 939.3 1.4 59
2019-02-21 09:00:00 6.9 8 Sudeste 17 Sudeste 0 938.6 0.8 77
2019-02-21 08:00:00 5.3 9 Sudeste 15 Sudeste 0 938.1 0.4 79
2019-02-21 07:00:00 6.8 7 Sudeste 16 Sudeste 0 937.9 -0.1 72
2019-02-21 06:00:00 7.2 8 Sudeste 17 Sudeste 0 937.8 -0.3 67
2019-02-21 05:00:00 6.9 7 Sudeste 12 Sudeste 0 937.7 -0.2 80
2019-02-21 04:00:00 7.2 9 Sudeste 14 Sudeste 0 938 0.2 77
2019-02-21 03:00:00 7.9 8 Sudeste 14 Sudeste 0 938.1 0.3 71
2019-02-21 02:00:00 8.4 7 Sudeste 11 Sudeste 0 937.9 0.1 69
2019-02-21 01:00:00 8.6 6 Sur 8 Sur 0 937.8 0.4 69
2019-02-21 00:00:00 8.6 5 Sur 8 Sur 0 937.8 0.9 70
2019-02-20 23:00:00 9.4 5 Sudeste 8 Sudeste 0 937.8 1.2 66
2019-02-20 22:00:00 9.6 6 Sudeste 8 Sur 0 937.4 1.3 63
2019-02-20 21:00:00 9.9 3 Este 7 Nordeste 0 936.9 1 63
2019-02-20 20:00:00 10.4 4 Nordeste 9 Norte 0 936.6 0.7 63
2019-02-20 19:00:00 12.3 5 Norte 8 Norte 0 936.1 0.3 58
2019-02-20 18:00:00 14.2 4 Norte 11 Nordeste 0 935.9 -0.1 50
2019-02-20 17:00:00 14.8 6 Nordeste 23 Sur 0 935.9 -0.5 49
2019-02-20 16:00:00 17.1 6 Sudoeste 16 Sudoeste 0 935.8 -1.1 45
2019-02-20 15:00:00 15.8 6 Sudeste 16 Sudoeste 0 936 -0.8 48
2019-02-20 14:00:00 15.1 6 Sudeste 19 Sudeste 0 936.4 -0.1 51
2019-02-20 13:00:00 13.9 8 Sudeste 18 Sur 0 936.9 0.9 57
2019-02-20 12:00:00 12.7 8 Sur 17 Sudeste 0 936.8 1.3 63
2019-02-20 11:00:00 11.2 9 Sur 18 Sur 0 936.5 1.8 73
2019-02-20 10:00:00 9.1 9 Sur 18 Sudeste 0 936 1.9 76
2019-02-20 09:00:00 6 9 Sur 16 Sudeste 0.2 935.5 1.6 85
2019-02-20 08:00:00 5 8 Sur 14 Sur 0 934.7 0.8 83
2019-02-20 07:00:00 5.7 9 Sudeste 14 Sudeste 0 934.1 0 83
2019-02-20 06:00:00 6 8 Sur 12 Sudeste 0 933.9 -0.4 80
2019-02-20 05:00:00 5.8 5 Este 9 Nordeste 0 933.9 -0.4 87
2019-02-20 04:00:00 5.6 6 Nordeste 9 Norte 0 934.1 -0.1 88
2019-02-20 03:00:00 6 6 Norte 11 Norte 0 934.3 0.2 87
2019-02-20 02:00:00 6.1 6 Norte 10 Noroeste 0 934.3 0 85
2019-02-20 01:00:00 6.1 6 Norte 14 Nordeste 0 934.2 0.4 85
2019-02-20 00:00:00 7.3 8 Noroeste 13 Noroeste 0 934.1 0.5 80